Time;durP1;ratioP1;P1;durP2;ratioP2;P2;SDS_P1;SDS_P2;PMS_P1;PMS_P2;Temp;Humidity;BMP_temperature;BMP_pressure;BME280_temperature;BME280_humidity;BME280_pressure;Samples;Min_cycle;Max_cycle;Signal;HPM_P1;HPM_P2
2022/07/03 00:00:18;;;;;;;4.60;3.50;;;;;;;21.52;42.79;101056.06;688171;28;1382;-80
2022/07/03 00:00:38;;;;;;;4.97;3.38;;;;;;;21.44;42.95;101047.25;690981;28;1135;-81
2022/07/03 00:00:59;;;;;;;5.68;3.83;;;;;;;21.43;43.04;101050.81;690608;28;1689;-81
2022/07/03 00:01:20;;;;;;;5.40;3.80;;;;;;;21.43;42.92;101045.50;693984;28;1259;-80
2022/07/03 00:01:41;;;;;;;4.50;3.72;;;;;;;21.48;42.97;101059.59;696474;28;1217;-81
2022/07/03 00:02:02;;;;;;;3.72;3.33;;;;;;;21.41;42.94;101039.34;693289;28;1194;-81
2022/07/03 00:02:23;;;;;;;3.63;3.33;;;;;;;21.43;42.91;101045.50;691917;28;1268;-81
2022/07/03 00:02:43;;;;;;;3.92;3.50;;;;;;;21.42;42.89;101049.06;689852;28;1588;-81
2022/07/03 00:03:05;;;;;;;4.47;3.40;;;;;;;21.42;43.01;101049.94;690830;28;1982;-81
2022/07/03 00:03:26;;;;;;;5.30;3.30;;;;;;;21.43;42.88;101048.16;690991;28;1178;-81
2022/07/03 00:03:47;;;;;;;4.60;3.30;;;;;;;21.41;42.76;101042.00;690494;28;1620;-81
2022/07/03 00:04:07;;;;;;;3.60;3.30;;;;;;;21.41;42.88;101044.66;693459;28;1146;-82
2022/07/03 00:04:28;;;;;;;3.72;3.40;;;;;;;21.41;42.96;101047.31;693817;28;849;-82
2022/07/03 00:04:48;;;;;;;3.85;3.45;;;;;;;21.44;42.95;101053.44;695765;28;789;-82
2022/07/03 00:05:09;;;;;;;3.77;3.40;;;;;;;21.44;43.04;101061.41;696098;28;1136;-82
2022/07/03 00:05:30;;;;;;;3.70;3.40;;;;;;;21.37;43.15;101044.69;693664;28;1365;-81
2022/07/03 00:05:51;;;;;;;3.75;3.40;;;;;;;21.36;42.99;101047.38;696056;28;1511;-81
2022/07/03 00:06:11;;;;;;;3.70;3.40;;;;;;;21.38;43.15;101050.88;693021;28;1164;-81
2022/07/03 00:06:33;;;;;;;4.30;3.40;;;;;;;21.39;43.03;101054.41;688179;28;789;-82
2022/07/03 00:06:54;;;;;;;4.50;3.30;;;;;;;21.30;43.27;101044.78;693234;28;1634;-81
2022/07/03 00:07:15;;;;;;;5.07;3.50;;;;;;;21.27;43.13;101044.84;693644;28;972;-82
2022/07/03 00:07:38;;;;;;;4.45;3.70;;;;;;;21.28;43.16;101038.63;696485;28;862;-82
2022/07/03 00:07:59;;;;;;;5.80;3.55;;;;;;;21.38;43.12;101045.56;696465;28;1527;-82
2022/07/03 00:08:20;;;;;;;5.75;3.50;;;;;;;21.32;43.01;101043.88;693579;28;1203;-81
2022/07/03 00:08:41;;;;;;;6.43;3.25;;;;;;;21.42;43.11;101059.66;688282;28;1142;-81
2022/07/03 00:09:03;;;;;;;6.70;3.30;;;;;;;21.40;43.15;101056.16;690533;28;1275;-81
2022/07/03 00:09:24;;;;;;;5.43;3.10;;;;;;;21.37;43.13;101051.78;690736;28;1356;-82
2022/07/03 00:09:45;;;;;;;4.93;3.20;;;;;;;21.31;43.21;101034.16;690035;28;1320;-82
2022/07/03 00:10:07;;;;;;;4.07;3.25;;;;;;;21.28;43.27;101047.47;693143;28;1486;-81
2022/07/03 00:10:28;;;;;;;3.75;3.35;;;;;;;21.21;43.48;101048.44;696425;28;1728;-82
2022/07/03 00:10:48;;;;;;;3.85;3.50;;;;;;;21.16;43.39;101042.31;691317;28;1817;-81
2022/07/03 00:11:09;;;;;;;3.80;3.50;;;;;;;21.13;43.57;101042.34;696145;28;1203;-82
2022/07/03 00:11:43;;;;;;;3.97;3.67;;;;;;;21.10;43.77;101045.91;696461;28;1328;-82
2022/07/03 00:12:04;;;;;;;4.93;3.60;;;;;;;21.10;43.83;101049.44;695810;28;1652;-80
2022/07/03 00:12:25;;;;;;;4.85;3.40;;;;;;;21.08;43.82;101045.94;693635;28;845;-79
2022/07/03 00:12:46;;;;;;;4.68;3.28;;;;;;;21.09;43.88;101047.69;693093;28;1178;-80
2022/07/03 00:13:06;;;;;;;4.70;3.20;;;;;;;21.09;43.97;101046.81;695253;28;1125;-80
2022/07/03 00:13:27;;;;;;;5.68;3.30;;;;;;;21.07;44.01;101043.28;693748;28;1454;-80
2022/07/03 00:13:48;;;;;;;4.88;3.40;;;;;;;21.07;43.78;101040.63;692869;28;1553;-80
2022/07/03 00:14:09;;;;;;;4.43;3.37;;;;;;;21.10;43.79;101051.22;693477;28;1082;-80
2022/07/03 00:14:31;;;;;;;3.70;3.40;;;;;;;20.98;43.95;101031.00;693609;28;1360;-79
2022/07/03 00:14:52;;;;;;;3.63;3.23;;;;;;;21.02;43.99;101039.81;693494;28;1024;-81
2022/07/03 00:15:13;;;;;;;4.33;3.33;;;;;;;21.00;43.90;101037.19;690740;28;1393;-80
2022/07/03 00:15:34;;;;;;;3.90;3.35;;;;;;;20.99;43.95;101035.41;693067;28;1054;-80
2022/07/03 00:15:54;;;;;;;3.75;3.45;;;;;;;20.99;44.06;101035.41;694498;28;1541;-80
2022/07/03 00:16:15;;;;;;;3.70;3.40;;;;;;;21.00;44.03;101038.94;693669;28;979;-80
2022/07/03 00:16:36;;;;;;;4.05;3.40;;;;;;;21.10;43.70;101041.47;696386;28;1337;-80
2022/07/03 00:16:57;;;;;;;5.38;3.60;;;;;;;21.06;43.85;101037.13;694915;28;1099;-80
2022/07/03 00:17:18;;;;;;;5.00;3.70;;;;;;;21.06;43.88;101031.81;693568;28;1119;-79
2022/07/03 00:17:38;;;;;;;4.70;3.88;;;;;;;21.13;43.66;101047.66;699192;28;1282;-80
2022/07/03 00:17:59;;;;;;;5.77;3.70;;;;;;;21.12;43.60;101045.88;696089;28;1652;-80
2022/07/03 00:18:20;;;;;;;6.90;3.50;;;;;;;21.12;43.64;101037.91;696446;28;965;-79
2022/07/03 00:18:41;;;;;;;6.45;3.40;;;;;;;21.02;43.66;101024.75;691134;28;1381;-79
2022/07/03 00:19:02;;;;;;;4.22;3.22;;;;;;;21.10;43.67;101049.44;696077;28;1616;-79
2022/07/03 00:19:23;;;;;;;3.70;3.40;;;;;;;20.95;43.84;101020.41;694222;28;1215;-80
2022/07/03 00:19:45;;;;;;;3.63;3.33;;;;;;;20.95;43.96;101036.34;693023;28;1402;-79
2022/07/03 00:20:06;;;;;;;5.30;3.50;;;;;;;20.92;44.08;101033.72;692066;28;1288;-80
2022/07/03 00:20:35;;;;;;;5.35;3.30;;;;;;;20.88;44.04;101034.66;696309;28;1403;-79
2022/07/03 00:21:04;;;;;;;5.50;3.22;;;;;;;20.79;44.18;101028.56;698737;28;1520;-80
2022/07/03 00:21:34;;;;;;;3.30;3.00;;;;;;;20.86;44.31;101039.09;693642;28;814;-80
2022/07/03 00:22:04;;;;;;;3.50;3.20;;;;;;;20.78;44.19;101032.09;693170;28;1841;-80
2022/07/03 00:22:25;;;;;;;5.07;3.50;;;;;;;20.76;44.43;101028.59;696269;28;1186;-80
2022/07/03 00:22:48;;;;;;;4.85;3.20;;;;;;;20.80;44.27;101040.94;693785;28;1655;-80
2022/07/03 00:23:13;;;;;;;4.32;3.35;;;;;;;20.75;44.64;101037.44;692787;28;1910;-80
2022/07/03 00:23:40;;;;;;;4.60;3.70;;;;;;;20.77;44.57;101038.31;690889;28;1250;-80
2022/07/03 00:24:26;;;;;;;5.60;3.80;;;;;;;20.71;44.55;101033.06;691844;28;1627;-80
2022/07/03 00:24:50;;;;;;;5.68;3.40;;;;;;;20.74;44.64;101043.66;686745;28;1893;-78
2022/07/03 00:25:13;;;;;;;3.85;2.95;;;;;;;20.69;44.73;101033.06;693288;28;1145;-79
2022/07/03 00:25:36;;;;;;;3.35;3.05;;;;;;;20.69;44.85;101032.16;693747;28;1102;-80
2022/07/03 00:26:01;;;;;;;4.35;3.45;;;;;;;20.65;44.68;101030.47;690868;28;1735;-79
2022/07/03 00:26:24;;;;;;;4.53;3.60;;;;;;;20.69;45.19;101038.38;685443;28;1423;-79
2022/07/03 00:26:53;;;;;;;4.18;3.40;;;;;;;20.61;44.91;101029.59;693505;28;1287;-79
2022/07/03 00:27:15;;;;;;;4.00;3.33;;;;;;;20.68;44.92;101038.38;690878;28;932;-79
2022/07/03 00:27:39;;;;;;;4.30;3.33;;;;;;;20.66;45.09;101038.38;693597;28;1254;-80
2022/07/03 00:28:01;;;;;;;3.90;3.53;;;;;;;20.58;45.06;101029.63;692765;28;1690;-79
2022/07/03 00:28:23;;;;;;;6.15;3.50;;;;;;;20.64;45.05;101039.28;693560;28;1260;-80
2022/07/03 00:28:45;;;;;;;5.80;3.40;;;;;;;20.64;45.00;101036.63;690802;28;1569;-80
2022/07/03 00:29:12;;;;;;;6.13;3.42;;;;;;;20.57;45.09;101021.69;689704;28;1340;-79
2022/07/03 00:29:39;;;;;;;4.03;3.60;;;;;;;20.61;45.11;101034.91;693249;28;1289;-80
2022/07/03 00:30:01;;;;;;;4.00;3.60;;;;;;;20.61;45.23;101034.03;693098;28;1642;-79
2022/07/03 00:30:22;;;;;;;4.00;3.38;;;;;;;20.53;45.23;101021.72;696367;28;1094;-79
2022/07/03 00:30:47;;;;;;;3.85;3.10;;;;;;;20.54;45.26;101025.25;693231;28;810;-79
2022/07/03 00:31:09;;;;;;;3.83;3.10;;;;;;;20.48;45.29;101020.88;690543;28;1365;-80
2022/07/03 00:31:32;;;;;;;3.88;3.50;;;;;;;20.49;45.29;101022.66;693481;28;1333;-80
2022/07/03 00:31:54;;;;;;;4.10;3.70;;;;;;;20.47;45.19;101019.13;690614;28;1199;-80
2022/07/03 00:32:21;;;;;;;3.80;3.50;;;;;;;20.51;45.19;101023.50;690789;28;1028;-80
2022/07/03 00:32:43;;;;;;;3.58;3.28;;;;;;;20.47;45.45;101019.13;693533;28;1318;-79
2022/07/03 00:33:05;;;;;;;4.20;3.20;;;;;;;20.46;45.33;101019.16;693391;28;1574;-80
2022/07/03 00:33:28;;;;;;;4.60;3.33;;;;;;;20.51;45.39;101033.22;690877;28;1269;-79
2022/07/03 00:33:54;;;;;;;5.40;3.70;;;;;;;20.47;45.44;101021.75;693639;28;1959;-79
2022/07/03 00:34:16;;;;;;;5.10;3.60;;;;;;;20.53;45.49;101029.66;693373;28;1367;-80
2022/07/03 00:34:39;;;;;;;4.47;3.40;;;;;;;20.44;45.52;101011.19;698945;28;1434;-79
2022/07/03 00:35:01;;;;;;;3.63;3.33;;;;;;;20.52;45.33;101024.38;690565;28;1477;-79
2022/07/03 00:35:22;;;;;;;5.22;3.70;;;;;;;20.52;45.48;101027.91;691119;28;1056;-79
2022/07/03 00:35:43;;;;;;;5.80;3.70;;;;;;;20.47;45.50;101020.91;693305;28;1261;-80
2022/07/03 00:36:04;;;;;;;6.78;3.75;;;;;;;20.50;45.47;101027.06;690700;28;1970;-79
2022/07/03 00:36:36;;;;;;;4.50;3.42;;;;;;;20.54;45.38;101012.88;690756;28;1212;-79
2022/07/03 00:36:59;;;;;;;3.70;3.30;;;;;;;20.59;45.25;101014.59;693886;28;1956;-80
2022/07/03 00:37:20;;;;;;;3.40;3.10;;;;;;;20.63;45.23;101022.50;694249;28;1388;-79
2022/07/03 00:37:42;;;;;;;3.80;3.40;;;;;;;20.62;45.27;101019.88;688079;28;1264;-80
2022/07/03 00:38:02;;;;;;;4.10;3.50;;;;;;;20.63;45.16;101021.63;693274;28;1125;-79
2022/07/03 00:38:24;;;;;;;6.07;3.90;;;;;;;20.71;45.23;101034.84;696448;28;976;-80
2022/07/03 00:38:45;;;;;;;5.90;3.80;;;;;;;20.71;45.30;101034.84;694800;28;1306;-80
2022/07/03 00:39:06;;;;;;;7.38;3.97;;;;;;;20.62;45.06;101026.06;693980;28;1666;-80
2022/07/03 00:39:27;;;;;;;5.43;3.72;;;;;;;20.62;45.27;101025.16;693444;28;1197;-80
2022/07/03 00:39:48;;;;;;;6.03;3.80;;;;;;;20.65;45.12;101030.47;692948;28;1963;-79
2022/07/03 00:40:09;;;;;;;4.10;3.53;;;;;;;20.62;44.90;101025.16;693105;28;1332;-80
2022/07/03 00:40:30;;;;;;;4.55;3.70;;;;;;;20.67;45.14;101034.81;696304;28;1198;-80
2022/07/03 00:40:51;;;;;;;3.90;3.33;;;;;;;20.68;45.14;101038.38;694163;28;1982;-80
2022/07/03 00:41:25;;;;;;;4.00;3.40;;;;;;;20.62;45.20;101020.75;701753;28;1063;-80
2022/07/03 00:41:46;;;;;;;4.47;3.50;;;;;;;20.62;45.19;101022.50;699065;28;872;-80
2022/07/03 00:42:08;;;;;;;4.30;3.53;;;;;;;20.65;44.99;101025.16;696022;28;1144;-80
2022/07/03 00:42:30;;;;;;;3.70;3.30;;;;;;;20.64;45.09;101023.38;698787;28;2625;-80
2022/07/03 00:42:54;;;;;;;3.42;3.13;;;;;;;20.72;45.11;101032.16;693872;28;1468;-79
2022/07/03 00:43:17;;;;;;;3.60;3.30;;;;;;;20.71;45.04;101029.53;693384;28;1900;-80
2022/07/03 00:43:38;;;;;;;3.67;3.38;;;;;;;20.74;44.99;101032.16;690562;28;1335;-80
2022/07/03 00:44:00;;;;;;;5.40;3.67;;;;;;;20.69;45.20;101022.44;695965;28;1086;-79
2022/07/03 00:44:21;;;;;;;6.60;3.70;;;;;;;20.73;45.19;101022.44;695820;28;1366;-80
2022/07/03 00:44:56;;;;;;;6.18;3.55;;;;;;;20.74;45.12;101025.09;696280;28;1260;-79
2022/07/03 00:45:20;;;;;;;3.80;3.50;;;;;;;20.74;45.02;101014.47;693408;28;1254;-80
2022/07/03 00:45:47;;;;;;;3.70;3.40;;;;;;;20.82;44.94;101027.63;696223;28;1322;-79
2022/07/03 00:46:09;;;;;;;6.13;3.65;;;;;;;20.73;44.92;101018.03;692577;28;1037;-80
2022/07/03 00:46:30;;;;;;;6.50;3.60;;;;;;;20.78;45.00;101021.50;693227;28;1240;-80
2022/07/03 00:46:57;;;;;;;5.15;3.63;;;;;;;20.79;45.07;101020.59;693891;28;1963;-80
2022/07/03 00:47:20;;;;;;;4.60;3.50;;;;;;;20.85;44.85;101032.03;690931;28;1389;-80
2022/07/03 00:47:42;;;;;;;4.57;3.58;;;;;;;20.83;44.76;101029.41;688064;28;1374;-79
2022/07/03 00:48:06;;;;;;;4.18;3.50;;;;;;;20.88;44.71;101035.53;689772;28;1524;-80
2022/07/03 00:48:27;;;;;;;3.63;3.33;;;;;;;20.88;44.77;101032.00;690880;28;804;-80
2022/07/03 00:48:49;;;;;;;3.50;3.20;;;;;;;20.79;44.67;101017.94;690537;28;1699;-79
2022/07/03 00:49:10;;;;;;;3.40;3.10;;;;;;;20.90;44.73;101030.22;693255;28;1448;-79
2022/07/03 00:49:34;;;;;;;3.78;3.38;;;;;;;20.91;44.67;101038.16;693221;28;1207;-79
2022/07/03 00:49:57;;;;;;;4.30;3.60;;;;;;;20.93;44.67;101035.50;687652;28;1238;-79
2022/07/03 00:50:25;;;;;;;4.13;3.72;;;;;;;20.85;44.58;101017.03;690628;28;1433;-80
2022/07/03 00:50:50;;;;;;;4.03;3.50;;;;;;;20.95;44.51;101028.38;692110;28;1440;-79
2022/07/03 00:51:15;;;;;;;4.30;3.30;;;;;;;20.90;44.58;101019.63;690749;28;961;-79
2022/07/03 00:51:40;;;;;;;4.50;3.40;;;;;;;20.96;44.50;101030.13;693063;28;1271;-80
2022/07/03 00:52:05;;;;;;;4.18;3.60;;;;;;;20.97;44.40;101026.63;693514;28;1936;-79
2022/07/03 00:52:30;;;;;;;4.70;3.67;;;;;;;20.93;44.46;101027.53;699026;28;833;-79
2022/07/03 00:52:54;;;;;;;5.22;3.70;;;;;;;20.93;44.25;101025.78;690551;28;1105;-80
2022/07/03 00:53:26;;;;;;;4.72;3.58;;;;;;;21.02;44.26;101039.81;690274;28;1329;-79
2022/07/03 00:53:50;;;;;;;3.80;3.45;;;;;;;20.91;44.20;101024.88;696248;28;1956;-79
2022/07/03 00:54:16;;;;;;;4.13;3.50;;;;;;;20.92;44.11;101017.81;701214;28;1028;-79
2022/07/03 00:54:42;;;;;;;4.20;3.80;;;;;;;20.90;44.12;101020.47;693463;28;1200;-80
2022/07/03 00:55:07;;;;;;;4.20;3.80;;;;;;;20.95;44.07;101028.38;690305;28;1218;-80
2022/07/03 00:55:29;;;;;;;4.28;3.75;;;;;;;20.98;44.04;101038.97;690845;28;1351;-79
2022/07/03 00:55:52;;;;;;;5.43;3.83;;;;;;;20.95;43.92;101033.69;688381;28;1954;-79
2022/07/03 00:56:15;;;;;;;5.40;3.72;;;;;;;21.01;43.85;101038.94;688175;28;1099;-79
2022/07/03 00:56:39;;;;;;;4.40;3.60;;;;;;;21.00;43.90;101039.81;688987;28;833;-79
2022/07/03 00:57:02;;;;;;;4.35;3.67;;;;;;;20.92;43.80;101029.31;692162;28;2060;-79
2022/07/03 00:57:24;;;;;;;4.18;3.67;;;;;;;20.96;44.02;101036.31;693533;28;1125;-80
2022/07/03 00:57:52;;;;;;;5.13;3.60;;;;;;;20.93;43.90;101030.19;693102;28;1196;-80
2022/07/03 00:58:16;;;;;;;4.70;3.58;;;;;;;20.95;44.05;101033.69;692280;28;1063;-80
2022/07/03 00:58:40;;;;;;;6.47;3.53;;;;;;;20.97;44.03;101042.53;690897;28;898;-79
2022/07/03 00:59:01;;;;;;;7.05;3.60;;;;;;;20.94;43.99;101035.47;691607;28;1378;-80
2022/07/03 00:59:21;;;;;;;5.53;3.63;;;;;;;20.87;44.01;101020.53;696251;28;1034;-79
2022/07/03 00:59:43;;;;;;;4.35;3.90;;;;;;;20.96;44.00;101036.31;690507;28;1314;-79
2022/07/03 01:00:04;;;;;;;4.30;3.90;;;;;;;20.90;44.12;101030.22;693085;28;1249;-79
2022/07/03 01:00:25;;;;;;;4.00;3.60;;;;;;;20.87;43.88;101024.94;696157;28;1127;-79
2022/07/03 01:00:50;;;;;;;3.60;3.30;;;;;;;20.88;44.10;101029.34;690683;28;1290;-79
2022/07/03 01:01:16;;;;;;;3.72;3.42;;;;;;;20.94;44.09;101039.88;687581;28;1440;-80
2022/07/03 01:01:40;;;;;;;4.30;3.90;;;;;;;20.87;44.19;101027.59;690692;28;1240;-79
2022/07/03 01:02:05;;;;;;;5.60;3.70;;;;;;;20.94;44.00;101037.25;689842;28;1623;-80
2022/07/03 01:02:44;;;;;;;5.70;3.38;;;;;;;20.95;44.15;101039.00;688636;28;1309;-80
2022/07/03 01:03:15;;;;;;;4.18;3.60;;;;;;;20.93;44.01;101047.00;690244;28;1961;-80
2022/07/03 01:03:42;;;;;;;4.30;3.35;;;;;;;20.89;44.21;101039.94;688088;28;1112;-81
2022/07/03 01:04:28;;;;;;;4.43;3.50;;;;;;;20.90;44.34;101036.41;689272;28;1495;-81
2022/07/03 01:05:01;;;;;;;4.95;3.30;;;;;;;20.90;44.22;101040.84;693361;28;1134;-80
2022/07/03 01:05:34;;;;;;;6.85;3.40;;;;;;;20.88;44.30;101037.28;693515;28;1245;-80
2022/07/03 01:05:59;;;;;;;6.75;3.75;;;;;;;20.86;44.28;101047.06;690512;28;1162;-80
2022/07/03 01:06:21;;;;;;;5.00;3.58;;;;;;;20.78;44.38;101026.78;690622;28;1205;-79
2022/07/03 01:06:58;;;;;;;4.20;3.50;;;;;;;20.72;44.56;101026.84;687766;28;1134;-80
2022/07/03 01:07:47;;;;;;;3.83;3.10;;;;;;;20.78;44.71;101042.72;690726;28;1016;-79
2022/07/03 01:08:19;;;;;;;5.90;2.95;;;;;;;20.69;44.93;101026.88;692565;28;1194;-80
2022/07/03 01:08:53;;;;;;;3.92;3.22;;;;;;;20.76;45.24;101038.31;696149;28;1012;-80
2022/07/03 01:09:17;;;;;;;3.55;3.25;;;;;;;20.70;45.22;101033.97;690241;28;1468;-79
2022/07/03 01:10:00;;;;;;;4.00;3.70;;;;;;;20.69;45.44;101030.41;693101;28;894;-80
2022/07/03 01:10:21;;;;;;;6.10;3.42;;;;;;;20.74;45.37;101041.00;695810;28;1998;-80
2022/07/03 01:11:01;;;;;;;6.30;3.20;;;;;;;20.73;45.39;101044.56;698615;28;1282;-80
2022/07/03 01:11:31;;;;;;;4.40;3.42;;;;;;;20.72;45.59;101042.75;698333;28;1626;-80
2022/07/03 01:12:02;;;;;;;3.80;3.40;;;;;;;20.69;45.59;101032.16;693301;28;1939;-80
2022/07/03 01:13:20;;;;;;;3.90;3.50;;;;;;;20.73;45.58;101043.66;688147;28;883;-80
2022/07/03 01:13:51;;;;;;;4.30;3.60;;;;;;;20.72;45.71;101045.41;678131;29;2840;-80
2022/07/03 01:14:28;;;;;;;4.95;3.50;;;;;;;20.66;45.62;101042.81;678951;29;1152;-79
2022/07/03 01:15:10;;;;;;;4.50;3.60;;;;;;;20.62;45.67;101033.13;677210;29;817;-80
2022/07/03 01:15:53;;;;;;;4.55;3.70;;;;;;;20.69;45.67;101048.97;678614;29;2940;-79
2022/07/03 01:16:38;;;;;;;4.25;3.85;;;;;;;20.67;45.69;101055.19;677486;29;1442;-79
2022/07/03 01:17:03;;;;;;;3.88;3.47;;;;;;;20.57;45.76;101037.63;679629;29;1737;-80
2022/07/03 01:17:31;;;;;;;3.97;3.58;;;;;;;20.54;45.90;101034.06;674621;29;954;-79
2022/07/03 01:18:13;;;;;;;4.10;3.80;;;;;;;20.62;45.87;101051.69;679402;29;1532;-80
2022/07/03 01:18:58;;;;;;;4.00;3.60;;;;;;;20.62;45.77;101051.69;680339;28;1196;-80
2022/07/03 01:19:25;;;;;;;4.20;3.80;;;;;;;20.60;45.82;101049.03;682392;29;1061;-80
2022/07/03 01:19:48;;;;;;;5.30;3.90;;;;;;;20.50;45.97;101031.47;685285;28;1223;-80
2022/07/03 01:20:11;;;;;;;6.05;4.05;;;;;;;20.58;45.86;101049.97;692738;28;1503;-80
2022/07/03 01:20:37;;;;;;;6.25;4.10;;;;;;;20.54;45.82;101046.47;690660;28;1305;-79
2022/07/03 01:21:26;;;;;;;5.53;3.85;;;;;;;20.55;45.89;101041.13;689282;28;1105;-80
2022/07/03 01:21:55;;;;;;;4.10;3.70;;;;;;;20.48;45.81;101039.41;690018;28;1333;-80
2022/07/03 01:22:37;;;;;;;4.30;3.90;;;;;;;20.45;45.65;101033.28;690574;28;1039;-79
2022/07/03 01:23:00;;;;;;;4.68;4.15;;;;;;;20.51;45.86;101050.00;693201;28;1971;-80
2022/07/03 01:23:30;;;;;;;4.93;4.28;;;;;;;20.50;45.79;101045.63;690620;28;1241;-80
2022/07/03 01:24:04;;;;;;;6.22;4.25;;;;;;;20.41;45.81;101032.44;689631;28;933;-79
2022/07/03 01:24:47;;;;;;;4.75;3.72;;;;;;;20.45;45.91;101039.47;690656;28;914;-80
2022/07/03 01:25:14;;;;;;;4.15;3.70;;;;;;;20.49;45.84;101043.84;694823;28;1927;-79
2022/07/03 01:25:48;;;;;;;4.72;3.60;;;;;;;20.43;45.87;101038.59;694241;28;1172;-79
2022/07/03 01:26:12;;;;;;;5.07;4.00;;;;;;;20.46;45.79;101043.88;695461;28;1129;-80
2022/07/03 01:26:37;;;;;;;4.57;4.00;;;;;;;20.40;45.91;101041.25;690822;28;791;-80
2022/07/03 01:27:04;;;;;;;4.50;4.10;;;;;;;20.44;45.97;101045.66;689348;28;1108;-79
2022/07/03 01:27:34;;;;;;;4.60;4.10;;;;;;;20.41;45.79;101043.06;689794;28;1645;-79
2022/07/03 01:28:11;;;;;;;9.55;4.30;;;;;;;20.41;45.69;101046.56;690697;28;1564;-80
2022/07/03 01:28:36;;;;;;;7.20;3.95;;;;;;;20.34;45.76;101036.91;698487;28;1391;-79
2022/07/03 01:29:03;;;;;;;3.97;3.60;;;;;;;20.35;45.87;101032.50;691301;28;1578;-79
2022/07/03 01:29:37;;;;;;;4.57;3.70;;;;;;;20.37;46.06;101038.66;693247;28;1176;-79
2022/07/03 01:30:11;;;;;;;4.80;3.70;;;;;;;20.33;45.85;101019.25;688570;28;1492;-79
2022/07/03 01:30:38;;;;;;;4.63;3.67;;;;;;;20.34;45.99;101026.31;688011;28;729;-79
2022/07/03 01:31:01;;;;;;;4.43;3.70;;;;;;;20.39;46.17;101028.91;691329;28;1275;-79
2022/07/03 01:31:22;;;;;;;4.75;3.80;;;;;;;20.40;46.22;101034.22;693605;28;1194;-80
2022/07/03 01:31:48;;;;;;;4.97;4.00;;;;;;;20.38;46.14;101024.50;687952;28;1338;-79
2022/07/03 01:32:10;;;;;;;4.80;3.90;;;;;;;20.40;46.25;101035.97;697990;28;1937;-80
2022/07/03 01:33:06;;;;;;;5.05;3.65;;;;;;;20.24;46.26;101017.53;690834;28;1282;-79
2022/07/03 01:33:31;;;;;;;4.38;3.60;;;;;;;20.20;46.49;101023.78;690640;28;1249;-80
2022/07/03 01:33:52;;;;;;;3.97;3.65;;;;;;;20.24;46.33;101033.44;691601;28;1872;-79
2022/07/03 01:34:16;;;;;;;4.47;3.72;;;;;;;20.24;46.72;101028.16;696099;28;1044;-80
2022/07/03 01:34:43;;;;;;;4.55;3.72;;;;;;;20.21;46.49;101030.84;690663;28;1515;-80
2022/07/03 01:35:06;;;;;;;4.00;3.60;;;;;;;20.13;46.33;101022.06;692163;28;1558;-80
2022/07/03 01:35:33;;;;;;;4.25;3.78;;;;;;;20.15;46.78;101036.16;696464;28;1117;-80
2022/07/03 01:36:05;;;;;;;4.63;3.80;;;;;;;20.06;46.93;101015.94;690546;28;1185;-79
2022/07/03 01:36:29;;;;;;;4.20;3.80;;;;;;;20.19;46.95;101037.03;693402;28;862;-79
2022/07/03 01:36:53;;;;;;;4.00;3.60;;;;;;;20.11;46.80;101018.56;687694;28;1064;-79
2022/07/03 01:37:17;;;;;;;4.25;3.80;;;;;;;20.12;46.98;101025.63;693205;28;1375;-79
2022/07/03 01:37:40;;;;;;;4.30;3.70;;;;;;;20.12;46.92;101026.47;695585;28;1436;-80
2022/07/03 01:38:06;;;;;;;4.00;3.60;;;;;;;20.08;47.12;101024.75;694439;28;1884;-79
2022/07/03 01:38:35;;;;;;;4.18;3.78;;;;;;;20.06;47.06;101030.94;693555;28;805;-80
2022/07/03 01:39:01;;;;;;;4.22;3.83;;;;;;;20.09;47.27;101025.63;688756;28;1512;-80
2022/07/03 01:39:26;;;;;;;4.30;3.90;;;;;;;20.04;47.20;101022.16;688099;28;1248;-80
2022/07/03 01:39:51;;;;;;;4.20;3.80;;;;;;;20.04;47.29;101032.75;692981;28;1123;-79
2022/07/03 01:40:14;;;;;;;4.05;3.65;;;;;;;20.03;47.41;101031.84;689344;28;1256;-80
2022/07/03 01:40:38;;;;;;;4.00;3.60;;;;;;;20.02;47.23;101021.28;687993;28;1133;-80
2022/07/03 01:41:01;;;;;;;3.95;3.55;;;;;;;20.04;47.40;101035.38;688516;28;1472;-79
2022/07/03 01:41:25;;;;;;;3.92;3.60;;;;;;;20.03;47.36;101033.63;696186;28;917;-80
2022/07/03 01:41:48;;;;;;;4.20;3.80;;;;;;;19.92;47.30;101013.38;696082;28;866;-80
2022/07/03 01:42:09;;;;;;;4.20;3.80;;;;;;;19.97;47.40;101027.47;690284;28;1425;-79
2022/07/03 01:42:33;;;;;;;4.82;3.88;;;;;;;19.93;47.33;101019.56;690414;28;1243;-80
2022/07/03 01:42:54;;;;;;;5.65;3.70;;;;;;;19.97;47.51;101032.78;689445;28;1213;-79
2022/07/03 01:43:18;;;;;;;6.25;3.70;;;;;;;19.90;47.43;101022.25;690480;28;1952;-80
2022/07/03 01:43:47;;;;;;;4.97;3.55;;;;;;;19.95;47.55;101031.03;687948;28;1364;-80
2022/07/03 01:44:13;;;;;;;4.00;3.63;;;;;;;19.94;47.59;101027.50;692058;28;1622;-80
2022/07/03 01:44:36;;;;;;;3.70;3.40;;;;;;;19.89;47.92;101023.13;696240;28;1045;-80
2022/07/03 01:44:58;;;;;;;4.10;3.70;;;;;;;19.89;47.86;101024.00;695423;28;1955;-80
2022/07/03 01:45:21;;;;;;;4.13;3.72;;;;;;;19.86;47.64;101021.38;691187;28;859;-80
2022/07/03 01:45:43;;;;;;;4.72;3.72;;;;;;;19.87;47.74;101028.41;690741;28;823;-80
2022/07/03 01:46:04;;;;;;;5.47;3.80;;;;;;;19.83;47.68;101022.25;688233;28;1496;-79
2022/07/03 01:46:31;;;;;;;5.82;3.60;;;;;;;19.78;47.64;101010.81;690788;28;925;-79
2022/07/03 01:46:56;;;;;;;4.85;3.55;;;;;;;19.76;47.67;101009.06;690440;28;1086;-80
2022/07/03 01:47:18;;;;;;;4.72;3.78;;;;;;;19.75;47.72;101007.28;687971;28;1194;-79
2022/07/03 01:47:41;;;;;;;6.22;4.30;;;;;;;19.79;47.80;101020.50;690595;28;1344;-79
2022/07/03 01:48:02;;;;;;;5.75;4.20;;;;;;;19.78;47.76;101020.53;694465;28;1265;-80
2022/07/03 01:48:24;;;;;;;5.10;3.85;;;;;;;19.81;47.66;101026.69;693343;28;1168;-80
2022/07/03 01:48:45;;;;;;;3.95;3.55;;;;;;;19.78;47.64;101025.84;693445;28;902;-79
2022/07/03 01:49:08;;;;;;;4.00;3.60;;;;;;;19.73;47.79;101016.13;693137;28;1270;-79
2022/07/03 01:49:32;;;;;;;4.57;3.80;;;;;;;19.66;47.98;101021.50;693276;28;870;-80
2022/07/03 01:49:54;;;;;;;4.10;3.70;;;;;;;19.56;48.02;101010.94;687635;28;1397;-80
2022/07/03 01:50:15;;;;;;;5.15;3.65;;;;;;;19.63;48.17;101016.19;690664;28;1260;-80
2022/07/03 01:50:37;;;;;;;4.57;3.55;;;;;;;19.52;48.30;101009.22;690689;28;1364;-79
2022/07/03 01:50:58;;;;;;;6.90;3.80;;;;;;;19.60;48.30;101022.38;695976;28;1350;-79
2022/07/03 01:51:19;;;;;;;6.45;3.70;;;;;;;19.58;48.37;101019.75;698799;28;1174;-79
2022/07/03 01:51:41;;;;;;;6.95;3.60;;;;;;;19.67;48.35;101024.09;689979;28;1646;-80
2022/07/03 01:52:02;;;;;;;4.63;3.40;;;;;;;19.63;48.31;101014.44;690335;28;1119;-80
2022/07/03 01:52:24;;;;;;;3.83;3.43;;;;;;;19.69;48.17;101016.16;690566;28;1208;-80
2022/07/03 01:52:48;;;;;;;3.83;3.53;;;;;;;19.63;48.23;101017.09;693485;28;839;-80
2022/07/03 01:53:11;;;;;;;3.75;3.45;;;;;;;19.58;48.12;101018.88;693018;28;1078;-80
2022/07/03 01:53:32;;;;;;;3.90;3.50;;;;;;;19.55;48.11;101018.91;693457;28;1276;-80
2022/07/03 01:53:54;;;;;;;4.55;3.60;;;;;;;19.55;48.24;101016.25;690221;28;1477;-80
2022/07/03 01:54:14;;;;;;;4.70;3.80;;;;;;;19.52;48.46;101018.91;687328;28;1340;-80
2022/07/03 01:54:39;;;;;;;4.53;3.75;;;;;;;19.47;48.22;101007.47;687936;28;1071;-79
2022/07/03 01:55:01;;;;;;;3.95;3.55;;;;;;;19.47;48.35;101010.13;687544;28;1407;-80
2022/07/03 01:55:23;;;;;;;5.88;3.80;;;;;;;19.47;48.32;101020.72;696082;28;1274;-79
2022/07/03 01:55:46;;;;;;;5.82;3.67;;;;;;;19.48;48.61;101014.53;687862;28;1196;-79
2022/07/03 01:56:07;;;;;;;4.05;3.40;;;;;;;19.39;48.50;101018.97;694761;28;1171;-80
2022/07/03 01:56:32;;;;;;;3.47;3.17;;;;;;;19.40;48.49;101023.38;692645;28;1455;-80
2022/07/03 01:56:54;;;;;;;3.60;3.30;;;;;;;19.46;48.51;101030.41;690206;28;2014;-78
2022/07/03 01:57:15;;;;;;;4.00;3.60;;;;;;;19.41;48.74;101025.13;690346;28;1559;-81
2022/07/03 01:57:49;;;;;;;3.92;3.50;;;;;;;19.39;48.71;101023.38;693448;28;854;-79
2022/07/03 01:58:11;;;;;;;4.28;3.50;;;;;;;19.31;49.14;101021.66;694490;28;1210;-79
2022/07/03 01:58:32;;;;;;;5.70;3.88;;;;;;;19.37;48.94;101020.72;693345;28;1598;-80
2022/07/03 01:58:53;;;;;;;4.88;3.83;;;;;;;19.31;48.68;101018.13;687711;28;1465;-80
2022/07/03 01:59:14;;;;;;;6.87;3.87;;;;;;;19.28;48.85;101023.44;690729;28;1123;-80
2022/07/03 01:59:35;;;;;;;5.47;3.50;;;;;;;19.26;48.94;101017.28;693012;28;1180;-79
2022/07/03 01:59:59;;;;;;;8.68;3.70;;;;;;;19.24;49.03;101019.03;696630;28;1722;-79